Time;durP1;ratioP1;P1;durP2;ratioP2;P2;SDS_P1;SDS_P2;PMS_P1;PMS_P2;Temp;Humidity;BMP_temperature;BMP_pressure;BME280_temperature;BME280_humidity;BME280_pressure;Samples;Min_cycle;Max_cycle;Signal;HPM_P1;HPM_P2
2022/04/29 00:01:33;;;;;;;13.13;11.20;;;;;;;;;;5009825;28;20518;-89
2022/04/29 00:04:00;;;;;;;12.37;10.60;;;;;;;;;;4993696;28;20430;-89
2022/04/29 00:06:26;;;;;;;13.27;11.83;;;;;;;;;;4992439;28;20507;-89
2022/04/29 00:08:52;;;;;;;15.30;10.90;;;;;;;;;;4993760;28;20793;-89
2022/04/29 00:11:18;;;;;;;12.03;10.90;;;;;;;;;;4980945;28;20424;-88
2022/04/29 00:13:45;;;;;;;13.03;11.73;;;;;;;;;;4992983;28;20435;-89
2022/04/29 00:16:11;;;;;;;15.30;11.80;;;;;;;;;;5010581;28;20477;-90
2022/04/29 00:18:37;;;;;;;14.37;12.00;;;;;;;;;;4990797;28;20480;-89
2022/04/29 00:21:04;;;;;;;16.13;11.87;;;;;;;;;;4993508;28;20431;-89
2022/04/29 00:23:30;;;;;;;12.27;11.07;;;;;;;;;;5010043;28;20750;-89
2022/04/29 00:25:56;;;;;;;20.27;11.90;;;;;;;;;;4985164;28;20725;-89
2022/04/29 00:28:23;;;;;;;16.93;12.67;;;;;;;;;;5009247;28;20961;-89
2022/04/29 00:30:49;;;;;;;12.83;11.53;;;;;;;;;;4986717;28;20459;-90
2022/04/29 00:33:15;;;;;;;15.43;12.20;;;;;;;;;;4997136;28;20439;-90
2022/04/29 00:35:41;;;;;;;13.53;12.07;;;;;;;;;;4991664;28;20475;-89
2022/04/29 00:38:07;;;;;;;12.20;10.77;;;;;;;;;;4991846;28;20501;-89
2022/04/29 00:40:33;;;;;;;13.33;12.10;;;;;;;;;;5013420;28;20431;-89
2022/04/29 00:42:59;;;;;;;12.20;10.97;;;;;;;;;;4997592;28;20431;-88
2022/04/29 00:45:26;;;;;;;13.87;12.23;;;;;;;;;;5012369;28;20412;-88
2022/04/29 00:47:52;;;;;;;15.53;12.07;;;;;;;;;;5011706;28;20804;-87
2022/04/29 00:50:20;;;;;;;14.10;12.50;;;;;;;;;;5012015;28;20431;-87
2022/04/29 00:52:47;;;;;;;13.70;12.40;;;;;;;;;;5008490;28;20701;-89
2022/04/29 00:55:14;;;;;;;16.80;13.33;;;;;;;;;;5023699;28;20407;-88
2022/04/29 00:57:40;;;;;;;13.97;11.43;;;;;;;;;;5022245;28;20525;-89
2022/04/29 01:00:08;;;;;;;15.33;12.50;;;;;;;;;;5001336;28;20435;-89
2022/04/29 01:02:45;;;;;;;15.70;12.60;;;;;;;;;;4998422;28;20428;-89
2022/04/29 01:05:13;;;;;;;13.70;12.30;;;;;;;;;;5025997;28;20445;-88
2022/04/29 01:07:40;;;;;;;15.10;13.80;;;;;;;;;;5008468;28;20422;-90
2022/04/29 01:10:07;;;;;;;21.00;12.57;;;;;;;;;;4997613;28;20856;-89
2022/04/29 01:12:35;;;;;;;13.97;12.40;;;;;;;;;;5015952;28;20438;-88
2022/04/29 01:15:06;;;;;;;14.43;13.00;;;;;;;;;;5001179;28;20479;-88
2022/04/29 01:17:35;;;;;;;17.07;14.17;;;;;;;;;;4995592;28;20479;-88
2022/04/29 01:20:06;;;;;;;13.60;12.17;;;;;;;;;;5005368;28;20435;-89
2022/04/29 01:22:32;;;;;;;15.60;11.87;;;;;;;;;;5005188;28;20451;-88
2022/04/29 01:24:59;;;;;;;16.80;13.40;;;;;;;;;;5025812;28;20431;-87
2022/04/29 01:27:26;;;;;;;18.63;14.57;;;;;;;;;;5027166;28;20458;-87
2022/04/29 01:29:58;;;;;;;19.77;13.23;;;;;;;;;;5029116;28;20994;-89
2022/04/29 01:32:25;;;;;;;18.43;13.77;;;;;;;;;;5002208;28;20466;-88
2022/04/29 01:34:51;;;;;;;16.03;14.43;;;;;;;;;;5009340;28;20428;-87
2022/04/29 01:37:17;;;;;;;15.10;13.70;;;;;;;;;;5010521;28;20610;-88
2022/04/29 01:39:43;;;;;;;15.17;13.57;;;;;;;;;;4993970;28;20416;-88
2022/04/29 01:42:11;;;;;;;20.17;14.30;;;;;;;;;;5001110;28;20446;-88
2022/04/29 01:44:37;;;;;;;18.20;13.73;;;;;;;;;;5013052;28;20909;-87
2022/04/29 01:47:03;;;;;;;16.43;14.43;;;;;;;;;;4993890;28;20845;-88
2022/04/29 01:49:29;;;;;;;15.63;14.20;;;;;;;;;;4993609;28;20439;-87
2022/04/29 01:51:57;;;;;;;17.17;14.30;;;;;;;;;;4984661;28;20929;-87
2022/04/29 01:54:23;;;;;;;17.63;14.10;;;;;;;;;;5009699;28;20857;-87
2022/04/29 01:56:52;;;;;;;16.90;14.13;;;;;;;;;;4978555;28;20842;-87
2022/04/29 01:59:19;;;;;;;18.53;16.60;;;;;;;;;;4983381;28;20586;-88
2022/04/29 02:01:46;;;;;;;20.67;14.87;;;;;;;;;;4975667;28;20424;-86
2022/04/29 02:04:12;;;;;;;17.87;15.30;;;;;;;;;;5016035;28;20419;-87
2022/04/29 02:09:29;;;;;;;17.17;14.57;;;;;;;;;;5010111;28;20395;-87
2022/04/29 02:12:04;;;;;;;17.00;14.53;;;;;;;;;;4994132;28;20453;-86
2022/04/29 02:14:33;;;;;;;15.90;14.27;;;;;;;;;;5011603;28;20445;-87
2022/04/29 02:17:01;;;;;;;16.53;15.03;;;;;;;;;;5014621;28;20483;-86
2022/04/29 02:19:28;;;;;;;20.27;15.40;;;;;;;;;;5025479;28;20392;-88
2022/04/29 02:21:55;;;;;;;19.83;16.63;;;;;;;;;;4994771;28;20440;-88
2022/04/29 02:24:22;;;;;;;17.67;14.97;;;;;;;;;;5002847;28;20415;-89
2022/04/29 02:26:48;;;;;;;20.90;16.13;;;;;;;;;;4978853;28;20439;-89
2022/04/29 02:29:14;;;;;;;16.63;15.20;;;;;;;;;;5011707;28;20929;-87
2022/04/29 02:31:41;;;;;;;15.53;13.53;;;;;;;;;;5006749;28;20423;-87
2022/04/29 02:34:07;;;;;;;20.40;15.80;;;;;;;;;;4987173;28;20577;-86
2022/04/29 02:36:33;;;;;;;18.77;16.90;;;;;;;;;;4981304;28;20423;-87
2022/04/29 02:39:00;;;;;;;17.40;15.47;;;;;;;;;;4993714;28;20502;-87
2022/04/29 02:41:26;;;;;;;26.70;15.27;;;;;;;;;;4990518;28;20805;-87
2022/04/29 02:43:52;;;;;;;18.17;15.83;;;;;;;;;;5019681;28;20534;-86
2022/04/29 02:46:21;;;;;;;22.77;15.20;;;;;;;;;;5003329;28;20435;-87
2022/04/29 02:48:48;;;;;;;18.83;16.03;;;;;;;;;;5016253;28;20439;-88
2022/04/29 02:51:15;;;;;;;18.90;16.70;;;;;;;;;;5023283;28;20948;-87
2022/04/29 02:53:41;;;;;;;17.40;15.80;;;;;;;;;;5022590;28;20975;-88
2022/04/29 02:56:07;;;;;;;16.47;14.80;;;;;;;;;;5003414;28;20438;-87
2022/04/29 02:58:33;;;;;;;20.30;14.57;;;;;;;;;;5015824;28;20486;-87
2022/04/29 03:00:59;;;;;;;20.47;15.60;;;;;;;;;;5019500;28;20450;-87
2022/04/29 03:03:25;;;;;;;16.70;14.80;;;;;;;;;;5045160;23;20853;-88
2022/04/29 03:05:54;;;;;;;15.40;13.67;;;;;;;;;;5051051;28;20469;-87
2022/04/29 03:08:20;;;;;;;16.23;14.53;;;;;;;;;;5001971;28;20496;-87
2022/04/29 03:10:47;;;;;;;21.03;14.00;;;;;;;;;;5007312;28;20541;-88
2022/04/29 03:13:13;;;;;;;19.27;14.93;;;;;;;;;;5028918;28;20637;-88
2022/04/29 03:15:39;;;;;;;16.73;14.77;;;;;;;;;;5031080;28;20942;-87
2022/04/29 03:18:18;;;;;;;20.23;13.70;;;;;;;;;;5032600;28;20477;-88
2022/04/29 03:20:44;;;;;;;15.60;14.00;;;;;;;;;;5005832;28;20431;-88
2022/04/29 03:23:10;;;;;;;16.07;13.20;;;;;;;;;;5028787;28;20967;-87
2022/04/29 03:25:36;;;;;;;14.70;13.07;;;;;;;;;;5005916;28;20446;-89
2022/04/29 03:28:05;;;;;;;16.73;13.27;;;;;;;;;;5024477;28;20457;-89
2022/04/29 03:30:31;;;;;;;16.10;14.40;;;;;;;;;;4993431;28;20577;-89
2022/04/29 03:32:58;;;;;;;16.37;13.40;;;;;;;;;;5143096;23;20478;-86
2022/04/29 03:35:25;;;;;;;17.77;13.17;;;;;;;;;;5007394;28;20502;-86
2022/04/29 03:37:53;;;;;;;19.23;12.73;;;;;;;;;;5005667;28;20566;-87
2022/04/29 03:40:21;;;;;;;16.93;13.23;;;;;;;;;;4993492;28;20450;-87
2022/04/29 03:42:57;;;;;;;13.17;11.80;;;;;;;;;;5015108;28;20458;-87
2022/04/29 03:45:24;;;;;;;13.97;12.13;;;;;;;;;;5010697;28;20411;-86
2022/04/29 03:47:50;;;;;;;13.70;12.40;;;;;;;;;;5008547;28;20434;-87
2022/04/29 03:50:16;;;;;;;14.10;11.47;;;;;;;;;;4995380;28;20427;-87
2022/04/29 03:52:51;;;;;;;12.40;10.77;;;;;;;;;;4982235;28;21008;-87
2022/04/29 03:55:21;;;;;;;21.77;12.20;;;;;;;;;;4990897;28;20423;-86
2022/04/29 03:57:47;;;;;;;15.27;11.43;;;;;;;;;;4975610;28;20475;-87
2022/04/29 04:00:14;;;;;;;15.63;12.03;;;;;;;;;;4993839;28;20815;-86
2022/04/29 04:02:41;;;;;;;15.67;11.60;;;;;;;;;;4981148;28;21112;-86
2022/04/29 04:05:10;;;;;;;12.37;10.90;;;;;;;;;;4990810;28;20408;-87
2022/04/29 04:07:36;;;;;;;12.47;11.23;;;;;;;;;;4976118;28;20809;-86
2022/04/29 04:10:06;;;;;;;22.10;12.30;;;;;;;;;;4981483;28;20772;-87
2022/04/29 04:12:42;;;;;;;15.00;11.50;;;;;;;;;;4991539;28;20495;-86
2022/04/29 04:15:27;;;;;;;13.90;12.00;;;;;;;;;;4971676;28;20428;-87
2022/04/29 04:17:53;;;;;;;16.07;11.07;;;;;;;;;;5006269;28;20881;-85
2022/04/29 04:20:20;;;;;;;12.93;11.63;;;;;;;;;;4989100;28;20440;-83
2022/04/29 04:22:46;;;;;;;12.77;11.57;;;;;;;;;;4983773;28;20455;-87
2022/04/29 04:25:32;;;;;;;11.00;9.90;;;;;;;;;;4978117;28;20519;-86
2022/04/29 04:27:58;;;;;;;16.10;11.90;;;;;;;;;;4976582;28;20450;-76
2022/04/29 04:30:25;;;;;;;14.27;11.80;;;;;;;;;;4974928;28;20420;-86
2022/04/29 04:32:51;;;;;;;13.60;11.07;;;;;;;;;;4987358;28;20428;-86
2022/04/29 04:35:17;;;;;;;15.03;11.50;;;;;;;;;;4973747;28;20468;-88
2022/04/29 04:37:48;;;;;;;12.30;10.80;;;;;;;;;;5008650;28;20479;-87
2022/04/29 04:40:16;;;;;;;13.17;11.80;;;;;;;;;;4991903;28;20469;-86
2022/04/29 04:42:46;;;;;;;14.10;11.60;;;;;;;;;;4970899;28;20432;-87
2022/04/29 04:45:12;;;;;;;13.57;11.10;;;;;;;;;;4990662;28;20396;-87
2022/04/29 04:47:39;;;;;;;14.80;10.80;;;;;;;;;;4989939;28;20507;-87
2022/04/29 04:50:05;;;;;;;13.93;10.97;;;;;;;;;;4992713;28;20396;-84
2022/04/29 04:52:31;;;;;;;14.13;10.97;;;;;;;;;;4641788;28;10000579;-86
2022/04/29 04:54:57;;;;;;;15.23;10.37;;;;;;;;;;4966387;28;20181;-86
2022/04/29 04:57:23;;;;;;;13.27;10.40;;;;;;;;;;4982782;28;20513;-87
2022/04/29 04:59:49;;;;;;;16.40;10.97;;;;;;;;;;4959672;28;20930;-87
2022/04/29 05:02:15;;;;;;;16.57;12.50;;;;;;;;;;4975143;28;20478;-88
2022/04/29 05:04:42;;;;;;;19.17;11.27;;;;;;;;;;4991619;28;20750;-87
2022/04/29 05:07:10;;;;;;;12.77;11.43;;;;;;;;;;4972901;28;20454;-86
2022/04/29 05:09:37;;;;;;;15.27;11.77;;;;;;;;;;4979790;28;20984;-87
2022/04/29 05:12:03;;;;;;;11.63;9.80;;;;;;;;;;4964917;28;20423;-87
2022/04/29 05:14:34;;;;;;;17.27;11.50;;;;;;;;;;4974046;28;20445;-88
2022/04/29 05:17:01;;;;;;;15.43;11.07;;;;;;;;;;4970778;28;20508;-85
2022/04/29 05:19:27;;;;;;;11.27;10.30;;;;;;;;;;4974986;28;20452;-87
2022/04/29 05:21:57;;;;;;;11.13;10.03;;;;;;;;;;4979932;28;20432;-88
2022/04/29 05:24:26;;;;;;;16.10;10.80;;;;;;;;;;4968906;28;20446;-87
2022/04/29 05:27:03;;;;;;;13.70;10.47;;;;;;;;;;4978759;28;20925;-87
2022/04/29 05:29:29;;;;;;;18.67;11.23;;;;;;;;;;4994056;28;20452;-84
2022/04/29 05:31:56;;;;;;;11.87;10.17;;;;;;;;;;4990105;28;20451;-88
2022/04/29 05:34:22;;;;;;;16.37;10.90;;;;;;;;;;4986351;28;20475;-88
2022/04/29 05:36:48;;;;;;;17.87;10.90;;;;;;;;;;4985889;28;20464;-87
2022/04/29 05:42:22;;;;;;;18.53;10.30;;;;;;;;;;4990012;28;20432;-87
2022/04/29 05:44:49;;;;;;;10.70;9.60;;;;;;;;;;4988731;28;20455;-85
2022/04/29 05:47:17;;;;;;;15.23;10.47;;;;;;;;;;4984956;28;20930;-87
2022/04/29 05:49:43;;;;;;;13.30;10.57;;;;;;;;;;4996230;28;20777;-88
2022/04/29 05:52:22;;;;;;;15.60;10.37;;;;;;;;;;5003499;28;20554;-85
2022/04/29 05:54:48;;;;;;;13.50;10.17;;;;;;;;;;4971642;28;20910;-86
2022/04/29 05:57:14;;;;;;;12.80;9.60;;;;;;;;;;4996668;28;20479;-87
2022/04/29 05:59:40;;;;;;;18.93;10.67;;;;;;;;;;4980526;28;20957;-85
2022/04/29 06:02:06;;;;;;;12.77;10.40;;;;;;;;;;5006355;28;20777;-85
2022/04/29 06:04:32;;;;;;;14.80;9.53;;;;;;;;;;4997715;28;20449;-87
2022/04/29 06:06:58;;;;;;;18.20;11.30;;;;;;;;;;4974051;28;20437;-85
2022/04/29 06:09:25;;;;;;;18.93;10.30;;;;;;;;;;4974608;28;20502;-86
2022/04/29 06:11:51;;;;;;;14.37;10.10;;;;;;;;;;4981424;28;20472;-86
2022/04/29 06:14:17;;;;;;;14.73;10.00;;;;;;;;;;5001504;28;20435;-85
2022/04/29 06:16:45;;;;;;;17.27;10.10;;;;;;;;;;4991157;28;20783;-87
2022/04/29 06:19:11;;;;;;;12.77;9.80;;;;;;;;;;4993748;28;20456;-86
2022/04/29 06:21:38;;;;;;;10.47;9.30;;;;;;;;;;5000583;28;20885;-85
2022/04/29 06:24:05;;;;;;;11.47;9.90;;;;;;;;;;5003598;28;20938;-86
2022/04/29 06:26:31;;;;;;;14.30;10.13;;;;;;;;;;4980818;28;20432;-82
2022/04/29 06:29:00;;;;;;;12.53;10.17;;;;;;;;;;4993564;28;20981;-86
2022/04/29 06:31:26;;;;;;;11.80;10.10;;;;;;;;;;4977050;28;20439;-88
2022/04/29 06:33:52;;;;;;;12.10;10.80;;;;;;;;;;4988029;28;20455;-86
2022/04/29 06:36:24;;;;;;;30.80;11.57;;;;;;;;;;5002004;28;20517;-86
2022/04/29 06:38:50;;;;;;;19.00;10.30;;;;;;;;;;4986930;28;20578;-85
2022/04/29 06:41:16;;;;;;;17.90;11.20;;;;;;;;;;4990108;28;20882;-85
2022/04/29 06:43:43;;;;;;;14.40;10.80;;;;;;;;;;4997345;28;20478;-86
2022/04/29 06:46:10;;;;;;;12.63;10.13;;;;;;;;;;4989606;28;20988;-86
2022/04/29 06:48:36;;;;;;;11.57;10.43;;;;;;;;;;4998457;28;20439;-84
2022/04/29 06:51:02;;;;;;;13.90;10.63;;;;;;;;;;4973191;28;20428;-85
2022/04/29 06:53:29;;;;;;;11.33;9.83;;;;;;;;;;4991229;28;20628;-84
2022/04/29 06:55:55;;;;;;;14.47;9.57;;;;;;;;;;4989524;28;20476;-86
2022/04/29 06:58:21;;;;;;;14.27;11.07;;;;;;;;;;4988746;28;20571;-86
2022/04/29 07:00:47;;;;;;;17.77;10.27;;;;;;;;;;4995538;28;20483;-84
2022/04/29 07:03:13;;;;;;;14.23;10.80;;;;;;;;;;4980310;28;21111;-82
2022/04/29 07:05:40;;;;;;;16.03;12.40;;;;;;;;;;4973991;28;20834;-85
2022/04/29 07:08:13;;;;;;;13.87;10.87;;;;;;;;;;4988975;28;20535;-86
2022/04/29 07:10:40;;;;;;;17.00;12.20;;;;;;;;;;4984187;28;20774;-85
2022/04/29 07:13:35;;;;;;;17.00;12.53;;;;;;;;;;4977407;28;20425;-86
2022/04/29 07:16:01;;;;;;;14.23;12.03;;;;;;;;;;4971524;28;20421;-78
2022/04/29 07:18:27;;;;;;;11.80;9.63;;;;;;;;;;4968898;28;20751;-81
2022/04/29 07:20:53;;;;;;;11.13;10.00;;;;;;;;;;4967952;28;20771;-79
2022/04/29 07:23:19;;;;;;;14.07;11.27;;;;;;;;;;4984320;28;20873;-80
2022/04/29 07:25:45;;;;;;;12.30;10.93;;;;;;;;;;4972544;28;20544;-80
2022/04/29 07:28:11;;;;;;;12.23;11.07;;;;;;;;;;4991179;28;20953;-79
2022/04/29 07:30:37;;;;;;;15.10;11.23;;;;;;;;;;4289016;28;10000691;-79
2022/04/29 07:33:03;;;;;;;12.50;11.33;;;;;;;;;;5201510;23;20764;-80
2022/04/29 07:43:46;;;;;;;18.33;11.87;;;;;;;;;;5014745;28;20581;-82
2022/04/29 07:46:12;;;;;;;13.60;11.87;;;;;;;;;;5011805;28;20545;-80
2022/04/29 07:48:39;;;;;;;13.23;11.73;;;;;;;;;;5023809;28;20888;-82
2022/04/29 07:51:06;;;;;;;13.03;11.80;;;;;;;;;;5017887;28;20477;-76
2022/04/29 07:53:32;;;;;;;13.77;12.03;;;;;;;;;;5023320;28;20431;-81
2022/04/29 07:56:00;;;;;;;13.57;12.17;;;;;;;;;;5005192;28;20457;-79
2022/04/29 07:58:29;;;;;;;14.73;12.67;;;;;;;;;;5023258;28;20474;-79
2022/04/29 08:00:56;;;;;;;12.53;11.23;;;;;;;;;;5005845;28;20567;-80
2022/04/29 08:03:22;;;;;;;13.60;12.40;;;;;;;;;;5023116;28;20588;-81
2022/04/29 08:05:49;;;;;;;13.83;12.43;;;;;;;;;;5019773;28;20450;-82
2022/04/29 08:08:16;;;;;;;15.10;12.00;;;;;;;;;;5016868;28;20445;-80
2022/04/29 08:10:42;;;;;;;13.60;11.90;;;;;;;;;;5013693;28;20450;-79
2022/04/29 08:13:08;;;;;;;14.83;13.30;;;;;;;;;;5004380;28;20435;-80
2022/04/29 08:15:34;;;;;;;14.87;12.90;;;;;;;;;;4994722;28;20455;-81
2022/04/29 08:18:00;;;;;;;14.80;11.57;;;;;;;;;;5014591;28;20813;-76
2022/04/29 08:20:26;;;;;;;15.57;11.63;;;;;;;;;;5011272;28;20441;-80
2022/04/29 08:22:53;;;;;;;14.40;12.90;;;;;;;;;;5010813;28;20510;-80
2022/04/29 08:25:20;;;;;;;23.83;12.30;;;;;;;;;;4996673;28;20971;-79
2022/04/29 08:27:50;;;;;;;16.17;12.80;;;;;;;;;;5016388;28;20470;-80
2022/04/29 08:30:16;;;;;;;13.57;11.80;;;;;;;;;;5011716;28;21163;-80
2022/04/29 08:32:44;;;;;;;19.90;12.87;;;;;;;;;;5020780;28;20448;-81
2022/04/29 08:35:10;;;;;;;17.57;13.67;;;;;;;;;;4994690;28;20467;-83
2022/04/29 08:37:42;;;;;;;12.73;11.53;;;;;;;;;;5019021;28;21016;-80
2022/04/29 08:40:09;;;;;;;13.87;12.20;;;;;;;;;;5019811;28;20618;-80
2022/04/29 08:42:37;;;;;;;15.73;11.43;;;;;;;;;;5022958;28;20990;-80
2022/04/29 08:45:11;;;;;;;15.13;13.60;;;;;;;;;;5006313;28;20438;-80
2022/04/29 08:47:41;;;;;;;23.40;13.00;;;;;;;;;;5020419;28;20809;-80
2022/04/29 08:50:08;;;;;;;13.47;12.27;;;;;;;;;;5010162;28;20415;-81
2022/04/29 08:52:35;;;;;;;19.70;12.70;;;;;;;;;;5009857;28;20434;-80
2022/04/29 09:00:32;;;;;;;15.93;12.80;;;;;;;;;;5047760;28;20451;-80
2022/04/29 09:03:02;;;;;;;16.20;11.97;;;;;;;;;;5028764;28;20446;-81
2022/04/29 09:05:28;;;;;;;13.63;12.17;;;;;;;;;;5008818;28;20427;-80
2022/04/29 09:08:01;;;;;;;16.10;12.70;;;;;;;;;;5025738;28;20569;-80
2022/04/29 09:10:34;;;;;;;13.57;11.73;;;;;;;;;;5027211;28;20415;-80
2022/04/29 09:13:12;;;;;;;14.53;12.27;;;;;;;;;;5042608;28;20456;-79
2022/04/29 09:15:39;;;;;;;14.43;11.80;;;;;;;;;;5047226;28;20413;-80
2022/04/29 09:18:05;;;;;;;12.63;11.07;;;;;;;;;;5028029;28;20438;-80
2022/04/29 09:20:31;;;;;;;19.73;12.63;;;;;;;;;;5027534;28;20476;-80
2022/04/29 09:22:57;;;;;;;14.60;13.23;;;;;;;;;;5024391;28;20446;-80
2022/04/29 09:25:24;;;;;;;12.47;11.40;;;;;;;;;;5028442;28;20493;-81
2022/04/29 09:27:54;;;;;;;13.43;12.13;;;;;;;;;;5009666;28;20544;-80
2022/04/29 09:30:35;;;;;;;14.53;11.20;;;;;;;;;;5039609;28;20848;-82
2022/04/29 09:33:02;;;;;;;16.43;11.60;;;;;;;;;;5045452;28;20438;-82
2022/04/29 09:35:43;;;;;;;12.77;11.47;;;;;;;;;;5074265;22;20495;-82
2022/04/29 09:40:56;;;;;;;12.40;11.20;;;;;;;;;;5018025;28;20438;-81
2022/04/29 09:43:34;;;;;;;17.43;12.17;;;;;;;;;;4991278;28;20509;-82
2022/04/29 09:46:10;;;;;;;20.73;15.30;;;;;;;;;;4988842;28;20766;-80
2022/04/29 09:48:55;;;;;;;17.40;12.70;;;;;;;;;;4989151;28;20474;-82
2022/04/29 09:51:41;;;;;;;13.30;12.10;;;;;;;;;;4986786;28;20443;-81
2022/04/29 09:57:29;;;;;;;18.13;13.27;;;;;;;;;;4920336;28;20547;-82
2022/04/29 09:59:58;;;;;;;18.30;12.70;;;;;;;;;;4990451;28;20428;-78
2022/04/29 10:02:28;;;;;;;15.23;13.40;;;;;;;;;;4976783;28;20432;-82
2022/04/29 10:05:10;;;;;;;20.40;13.40;;;;;;;;;;4979346;28;20810;-82
2022/04/29 10:07:40;;;;;;;24.50;16.30;;;;;;;;;;4989057;28;20756;-83
2022/04/29 10:10:06;;;;;;;13.67;12.10;;;;;;;;;;5007078;28;20427;-82
2022/04/29 10:12:32;;;;;;;18.03;12.87;;;;;;;;;;4296288;28;10000752;-83
2022/04/29 10:14:59;;;;;;;17.10;12.93;;;;;;;;;;4988074;28;20193;-82
2022/04/29 10:23:08;;;;;;;216.37;32.67;;;;;;;;;;5000666;28;20426;-81
2022/04/29 10:25:35;;;;;;;19.40;13.67;;;;;;;;;;4987878;28;20920;-77
2022/04/29 10:28:02;;;;;;;28.40;13.67;;;;;;;;;;4990325;28;20541;-82
2022/04/29 10:30:39;;;;;;;16.93;13.03;;;;;;;;;;4989470;28;20436;-84
2022/04/29 10:33:14;;;;;;;14.00;12.50;;;;;;;;;;4983614;28;20446;-83
2022/04/29 10:35:42;;;;;;;14.77;12.27;;;;;;;;;;5001917;28;20530;-84
2022/04/29 10:38:27;;;;;;;14.50;12.37;;;;;;;;;;4985936;28;20435;-80
2022/04/29 10:41:12;;;;;;;12.40;11.03;;;;;;;;;;4990341;28;20431;-83
2022/04/29 10:44:11;;;;;;;12.50;11.17;;;;;;;;;;4982177;28;20416;-84
2022/04/29 10:47:04;;;;;;;15.80;11.23;;;;;;;;;;4990887;28;20811;-83
2022/04/29 10:49:30;;;;;;;12.70;10.90;;;;;;;;;;5002828;28;20875;-83
2022/04/29 10:51:56;;;;;;;12.93;9.07;;;;;;;;;;4990504;28;20447;-85
2022/04/29 10:54:40;;;;;;;12.60;11.43;;;;;;;;;;4992657;28;20455;-83
2022/04/29 10:57:16;;;;;;;14.03;10.70;;;;;;;;;;5001907;28;20436;-82
2022/04/29 10:59:50;;;;;;;10.73;9.70;;;;;;;;;;4995367;28;20519;-84
2022/04/29 11:02:28;;;;;;;10.80;9.80;;;;;;;;;;5012034;28;20428;-83
2022/04/29 11:05:08;;;;;;;;;;;;;;;;;;;;;
2022/04/29 11:07:39;;;;;;;9.60;8.80;;;;;;;;;;4927992;28;20840;-82
2022/04/29 11:10:12;;;;;;;11.73;9.23;;;;;;;;;;5013960;28;20426;-84
2022/04/29 11:12:39;;;;;;;11.07;9.90;;;;;;;;;;5033379;28;20430;-84
2022/04/29 11:15:28;;;;;;;12.53;9.17;;;;;;;;;;5008952;28;20455;-84
2022/04/29 11:18:12;;;;;;;10.80;9.77;;;;;;;;;;5028259;28;20466;-84
2022/04/29 11:26:45;;;;;;;9.77;8.90;;;;;;;;;;4989042;28;20420;-80
2022/04/29 11:29:11;;;;;;;10.80;9.67;;;;;;;;;;4976270;28;20444;-83
2022/04/29 11:31:38;;;;;;;14.33;9.17;;;;;;;;;;4972911;28;21047;-81
2022/04/29 11:34:11;;;;;;;9.70;8.70;;;;;;;;;;4974645;28;20483;-81
2022/04/29 11:36:37;;;;;;;12.77;9.13;;;;;;;;;;5008049;28;20524;-84
2022/04/29 11:39:20;;;;;;;11.53;9.37;;;;;;;;;;5016589;28;20415;-82
2022/04/29 11:41:56;;;;;;;10.03;9.00;;;;;;;;;;5007636;28;20443;-83
2022/04/29 11:44:42;;;;;;;10.23;9.43;;;;;;;;;;5005010;28;20459;-82
2022/04/29 11:47:16;;;;;;;12.47;8.33;;;;;;;;;;4985131;28;20541;-81
2022/04/29 11:49:54;;;;;;;10.20;9.27;;;;;;;;;;4997517;28;20478;-84
2022/04/29 11:52:30;;;;;;;9.87;8.87;;;;;;;;;;4985525;28;20439;-83
2022/04/29 11:55:00;;;;;;;10.87;9.73;;;;;;;;;;4993024;28;20446;-82
2022/04/29 11:57:31;;;;;;;11.50;9.67;;;;;;;;;;4999903;28;20809;-82
2022/04/29 12:00:00;;;;;;;13.10;10.33;;;;;;;;;;4992830;28;20609;-82
2022/04/29 12:02:32;;;;;;;11.17;9.93;;;;;;;;;;5019137;28;21248;-82
2022/04/29 12:05:20;;;;;;;30.13;19.90;;;;;;;;;;4992126;28;20446;-83
2022/04/29 12:08:15;;;;;;;12.07;9.17;;;;;;;;;;5007051;28;21034;-79
2022/04/29 12:11:02;;;;;;;10.50;8.77;;;;;;;;;;4988858;28;20510;-80
2022/04/29 12:13:31;;;;;;;12.93;9.10;;;;;;;;;;4992891;28;20558;-77
2022/04/29 12:16:04;;;;;;;11.93;9.97;;;;;;;;;;4995137;28;20428;-78
2022/04/29 12:18:41;;;;;;;10.27;9.33;;;;;;;;;;5006954;28;20442;-80
2022/04/29 12:21:09;;;;;;;10.57;9.50;;;;;;;;;;4651678;28;9999908;-77
2022/04/29 12:23:35;;;;;;;10.00;8.70;;;;;;;;;;5002907;28;20196;-78
2022/04/29 12:26:02;;;;;;;9.17;8.47;;;;;;;;;;5003751;28;20582;-78
2022/04/29 12:28:37;;;;;;;20.00;12.30;;;;;;;;;;4978869;28;21012;-80
2022/04/29 12:36:51;;;;;;;10.20;9.13;;;;;;;;;;5001541;28;20495;-79
2022/04/29 12:39:27;;;;;;;9.23;8.20;;;;;;;;;;4994382;28;20451;-78
2022/04/29 12:42:18;;;;;;;9.53;8.33;;;;;;;;;;4989906;28;20439;-83
2022/04/29 12:47:34;;;;;;;9.60;8.63;;;;;;;;;;5005836;28;20478;-79
2022/04/29 12:50:20;;;;;;;9.57;8.77;;;;;;;;;;4986971;28;20810;-78
2022/04/29 12:53:00;;;;;;;13.13;11.73;;;;;;;;;;4986265;28;20455;-83
2022/04/29 12:55:27;;;;;;;11.50;8.20;;;;;;;;;;5007968;28;20522;-83
2022/04/29 12:58:14;;;;;;;10.07;8.90;;;;;;;;;;4988932;28;20450;-81
2022/04/29 13:00:59;;;;;;;9.57;8.73;;;;;;;;;;4992094;28;20431;-84
2022/04/29 13:03:32;;;;;;;17.20;9.60;;;;;;;;;;5001942;28;20465;-83
2022/04/29 13:05:58;;;;;;;9.73;8.60;;;;;;;;;;5010671;28;20414;-84
2022/04/29 13:09:06;;;;;;;11.33;8.80;;;;;;;;;;4987746;28;20491;-83
2022/04/29 13:11:38;;;;;;;10.77;8.30;;;;;;;;;;4978711;28;20431;-86
2022/04/29 13:14:19;;;;;;;;;;;;;;;;;;;;;
2022/04/29 13:17:06;;;;;;;13.30;8.90;;;;;;;;;;5022758;28;20445;-85
2022/04/29 13:19:42;;;;;;;8.97;8.27;;;;;;;;;;5010806;28;20406;-85
2022/04/29 13:22:08;;;;;;;13.20;8.73;;;;;;;;;;5002509;28;20482;-80
2022/04/29 13:24:34;;;;;;;8.73;7.90;;;;;;;;;;5030593;28;20415;-84
2022/04/29 13:27:00;;;;;;;9.47;8.67;;;;;;;;;;5003808;28;20447;-83
2022/04/29 13:29:26;;;;;;;9.73;8.70;;;;;;;;;;5012666;28;20412;-83
2022/04/29 13:31:53;;;;;;;8.33;7.53;;;;;;;;;;4998633;28;20439;-85
2022/04/29 13:34:19;;;;;;;8.80;8.17;;;;;;;;;;4988830;28;20459;-80
2022/04/29 13:36:47;;;;;;;9.43;8.47;;;;;;;;;;4992306;28;20427;-82
2022/04/29 13:39:13;;;;;;;10.30;9.23;;;;;;;;;;4992331;28;20882;-82
2022/04/29 13:41:39;;;;;;;9.63;8.67;;;;;;;;;;5009442;28;20788;-85
2022/04/29 13:44:05;;;;;;;13.60;9.30;;;;;;;;;;4991301;28;20426;-84
2022/04/29 13:46:32;;;;;;;9.37;8.53;;;;;;;;;;4991115;28;20431;-83
2022/04/29 13:48:58;;;;;;;10.37;9.20;;;;;;;;;;5014339;28;20845;-81
2022/04/29 13:51:27;;;;;;;16.90;10.20;;;;;;;;;;5003800;28;20775;-80
2022/04/29 13:53:53;;;;;;;9.90;8.90;;;;;;;;;;4990788;28;20513;-83
2022/04/29 13:56:19;;;;;;;11.60;10.50;;;;;;;;;;4990739;28;20412;-83
2022/04/29 13:58:45;;;;;;;10.17;8.97;;;;;;;;;;5007048;28;20443;-83
2022/04/29 14:01:29;;;;;;;13.83;9.40;;;;;;;;;;4992701;28;20412;-87
2022/04/29 14:03:55;;;;;;;8.63;7.80;;;;;;;;;;4999767;28;20441;-82
2022/04/29 14:06:27;;;;;;;11.20;8.53;;;;;;;;;;5011231;28;20418;-84
2022/04/29 14:08:59;;;;;;;12.23;9.93;;;;;;;;;;5026894;28;20481;-83
2022/04/29 14:11:25;;;;;;;10.03;9.03;;;;;;;;;;5010025;28;20537;-84
2022/04/29 14:13:51;;;;;;;11.13;10.03;;;;;;;;;;5002601;28;20435;-84
2022/04/29 14:16:17;;;;;;;11.40;9.43;;;;;;;;;;4990914;28;20416;-83
2022/04/29 14:18:44;;;;;;;15.53;9.53;;;;;;;;;;4993271;28;20528;-81
2022/04/29 14:21:10;;;;;;;14.20;9.10;;;;;;;;;;5010795;28;20407;-84
2022/04/29 14:23:36;;;;;;;11.30;10.40;;;;;;;;;;5023566;28;20447;-82
2022/04/29 14:26:02;;;;;;;10.73;9.70;;;;;;;;;;5009633;28;20491;-83
2022/04/29 14:28:28;;;;;;;12.57;9.97;;;;;;;;;;5008564;28;20479;-86
2022/04/29 14:30:54;;;;;;;14.43;10.73;;;;;;;;;;4993018;28;20408;-82
2022/04/29 14:33:21;;;;;;;22.23;11.23;;;;;;;;;;4993592;28;20497;-84
2022/04/29 14:35:57;;;;;;;15.50;10.77;;;;;;;;;;4993598;28;20551;-79
2022/04/29 14:38:23;;;;;;;14.37;10.23;;;;;;;;;;4964471;28;20437;-84
2022/04/29 14:40:51;;;;;;;10.90;9.90;;;;;;;;;;4995490;28;20754;-86
2022/04/29 14:43:17;;;;;;;12.30;10.53;;;;;;;;;;5007206;28;20796;-84
2022/04/29 14:45:43;;;;;;;12.30;10.47;;;;;;;;;;5007472;28;20434;-83
2022/04/29 14:48:09;;;;;;;12.17;10.90;;;;;;;;;;5008645;28;20482;-85
2022/04/29 14:50:35;;;;;;;12.40;11.30;;;;;;;;;;4992190;28;20438;-83
2022/04/29 14:53:02;;;;;;;14.17;11.40;;;;;;;;;;5011676;28;20432;-82
2022/04/29 14:55:28;;;;;;;12.13;11.00;;;;;;;;;;5023865;28;20461;-80
2022/04/29 14:57:57;;;;;;;12.77;11.60;;;;;;;;;;4995048;28;20494;-80
2022/04/29 15:00:23;;;;;;;12.80;11.73;;;;;;;;;;4995233;28;20478;-77
2022/04/29 15:02:49;;;;;;;11.90;10.63;;;;;;;;;;4993888;28;20495;-81
2022/04/29 15:05:18;;;;;;;13.03;11.50;;;;;;;;;;5003065;28;20497;-80
2022/04/29 15:08:08;;;;;;;11.43;10.63;;;;;;;;;;4994859;28;20474;-86
2022/04/29 15:16:11;;;;;;;11.77;10.77;;;;;;;;;;5011349;28;21101;-84
2022/04/29 15:19:03;;;;;;;12.23;11.07;;;;;;;;;;5012450;28;20439;-83
2022/04/29 15:21:32;;;;;;;12.57;11.37;;;;;;;;;;5003669;28;20465;-81
2022/04/29 15:23:58;;;;;;;13.03;10.70;;;;;;;;;;4988760;28;20436;-84
2022/04/29 15:26:32;;;;;;;13.07;10.50;;;;;;;;;;4991922;28;20485;-84